KRKR/RKR METAR and TAF weather

Enter ICAO airport designator
Station Type Date Time Source
KRKR METAR 2021/01/27 13:55 UTC NOAA

KRKR 271355Z AUTO 26003KT 7SM OVC014 01/00 A3024 RMK AO2


Station Type Date Time Source
KRKR Decoded METAR 2021/01/27 13:55 UTC NOAA

Poteau, Robert S Kerr Airport, OK, United States (KRKR) 35-01-18N 094-37-17W
Jan 27, 2021 - 08:55 AM EST / 2021.01.27 1355 UTC
Wind: from the W (260 degrees) at 3 MPH (3 KT):0
Visibility: 7 mile(s):0
Sky conditions: overcast
Temperature: 33 F (1 C)
Dew Point: 32 F (0 C)
Relative Humidity: 93%
Pressure (altimeter): 30.24 in. Hg (1024 hPa)
ob: KRKR 271355Z AUTO 26003KT 7SM OVC014 01/00 A3024 RMK AO2
cycle: 14

Station Type Date Time Source
KRKR TAF UTC NOAA

Error!

Example: see airport list